sensor_id;sensor_type;location;lat;lon;timestamp;P1;durP1;ratioP1;P2;durP2;ratioP2
33836;SDS011;20140;49.356;8.812;2022-09-09T00:01:07;5.10;;;1.77;;
33836;SDS011;20140;49.356;8.812;2022-09-09T00:09:25;2.40;;;0.90;;
33836;SDS011;20140;49.356;8.812;2022-09-09T00:12:12;3.37;;;1.13;;
33836;SDS011;20140;49.356;8.812;2022-09-09T00:17:32;4.60;;;1.20;;
33836;SDS011;20140;49.356;8.812;2022-09-09T00:25:41;2.20;;;1.13;;
33836;SDS011;20140;49.356;8.812;2022-09-09T00:28:18;6.30;;;1.13;;
33836;SDS011;20140;49.356;8.812;2022-09-09T00:30:47;2.73;;;1.10;;
33836;SDS011;20140;49.356;8.812;2022-09-09T00:33:13;3.90;;;1.10;;
33836;SDS011;20140;49.356;8.812;2022-09-09T00:35:53;3.30;;;1.33;;
33836;SDS011;20140;49.356;8.812;2022-09-09T00:38:26;5.40;;;1.20;;
33836;SDS011;20140;49.356;8.812;2022-09-09T00:41:00;7.70;;;1.65;;
33836;SDS011;20140;49.356;8.812;2022-09-09T00:43:57;3.75;;;1.20;;
33836;SDS011;20140;49.356;8.812;2022-09-09T00:52:12;2.80;;;1.23;;
33836;SDS011;20140;49.356;8.812;2022-09-09T00:54:57;2.88;;;1.55;;
33836;SDS011;20140;49.356;8.812;2022-09-09T00:57:40;3.10;;;1.45;;
33836;SDS011;20140;49.356;8.812;2022-09-09T01:17:01;4.65;;;1.30;;
33836;SDS011;20140;49.356;8.812;2022-09-09T01:27:40;2.03;;;1.20;;
33836;SDS011;20140;49.356;8.812;2022-09-09T01:30:10;3.00;;;1.45;;
33836;SDS011;20140;49.356;8.812;2022-09-09T01:35:06;2.80;;;1.33;;
33836;SDS011;20140;49.356;8.812;2022-09-09T01:37:37;5.40;;;1.30;;
33836;SDS011;20140;49.356;8.812;2022-09-09T01:40:03;3.80;;;1.70;;
33836;SDS011;20140;49.356;8.812;2022-09-09T01:42:29;6.43;;;1.30;;
33836;SDS011;20140;49.356;8.812;2022-09-09T01:44:55;1.97;;;1.10;;
33836;SDS011;20140;49.356;8.812;2022-09-09T01:47:20;2.03;;;1.37;;
33836;SDS011;20140;49.356;8.812;2022-09-09T01:49:46;3.67;;;1.35;;
33836;SDS011;20140;49.356;8.812;2022-09-09T01:52:11;2.00;;;1.13;;
33836;SDS011;20140;49.356;8.812;2022-09-09T01:54:37;3.10;;;1.60;;
33836;SDS011;20140;49.356;8.812;2022-09-09T02:00:01;3.60;;;1.58;;
33836;SDS011;20140;49.356;8.812;2022-09-09T02:02:36;2.75;;;1.65;;
33836;SDS011;20140;49.356;8.812;2022-09-09T02:05:16;4.85;;;1.15;;
33836;SDS011;20140;49.356;8.812;2022-09-09T02:08:05;1.83;;;1.48;;
33836;SDS011;20140;49.356;8.812;2022-09-09T02:10:39;2.35;;;1.40;;
33836;SDS011;20140;49.356;8.812;2022-09-09T02:13:12;2.58;;;1.20;;
33836;SDS011;20140;49.356;8.812;2022-09-09T02:18:13;4.13;;;1.35;;
33836;SDS011;20140;49.356;8.812;2022-09-09T02:20:42;2.72;;;1.40;;
33836;SDS011;20140;49.356;8.812;2022-09-09T02:23:09;5.38;;;1.20;;
33836;SDS011;20140;49.356;8.812;2022-09-09T02:25:37;1.30;;;1.10;;
33836;SDS011;20140;49.356;8.812;2022-09-09T02:28:06;3.15;;;1.20;;
33836;SDS011;20140;49.356;8.812;2022-09-09T02:30:34;1.50;;;1.40;;
33836;SDS011;20140;49.356;8.812;2022-09-09T02:33:03;2.20;;;1.17;;
33836;SDS011;20140;49.356;8.812;2022-09-09T02:35:31;4.93;;;1.77;;
33836;SDS011;20140;49.356;8.812;2022-09-09T02:37:59;3.80;;;1.23;;
33836;SDS011;20140;49.356;8.812;2022-09-09T02:40:28;3.08;;;1.65;;
33836;SDS011;20140;49.356;8.812;2022-09-09T02:42:54;2.50;;;1.30;;
33836;SDS011;20140;49.356;8.812;2022-09-09T02:45:20;6.60;;;1.67;;
33836;SDS011;20140;49.356;8.812;2022-09-09T02:50:35;6.00;;;2.40;;
33836;SDS011;20140;49.356;8.812;2022-09-09T02:53:22;3.42;;;1.67;;
33836;SDS011;20140;49.356;8.812;2022-09-09T02:55:54;6.05;;;1.70;;
33836;SDS011;20140;49.356;8.812;2022-09-09T02:58:24;3.67;;;1.52;;
33836;SDS011;20140;49.356;8.812;2022-09-09T03:00:50;2.47;;;1.43;;
33836;SDS011;20140;49.356;8.812;2022-09-09T03:03:17;8.23;;;1.70;;
33836;SDS011;20140;49.356;8.812;2022-09-09T03:05:44;2.50;;;1.48;;
33836;SDS011;20140;49.356;8.812;2022-09-09T03:08:10;3.73;;;1.60;;
33836;SDS011;20140;49.356;8.812;2022-09-09T03:10:37;4.00;;;1.23;;
33836;SDS011;20140;49.356;8.812;2022-09-09T03:13:02;2.83;;;1.17;;
33836;SDS011;20140;49.356;8.812;2022-09-09T03:15:34;5.82;;;3.30;;
33836;SDS011;20140;49.356;8.812;2022-09-09T03:18:00;5.37;;;1.53;;
33836;SDS011;20140;49.356;8.812;2022-09-09T03:20:27;4.40;;;1.37;;
33836;SDS011;20140;49.356;8.812;2022-09-09T03:22:54;5.35;;;1.70;;
33836;SDS011;20140;49.356;8.812;2022-09-09T03:25:20;1.70;;;1.02;;
33836;SDS011;20140;49.356;8.812;2022-09-09T03:27:48;1.80;;;1.23;;
33836;SDS011;20140;49.356;8.812;2022-09-09T03:30:14;5.30;;;1.40;;
33836;SDS011;20140;49.356;8.812;2022-09-09T03:32:40;1.73;;;1.43;;
33836;SDS011;20140;49.356;8.812;2022-09-09T03:35:06;3.97;;;1.83;;
33836;SDS011;20140;49.356;8.812;2022-09-09T03:37:33;3.83;;;1.60;;
33836;SDS011;20140;49.356;8.812;2022-09-09T03:39:58;2.70;;;1.58;;
33836;SDS011;20140;49.356;8.812;2022-09-09T03:42:24;1.95;;;1.27;;
33836;SDS011;20140;49.356;8.812;2022-09-09T03:44:50;1.90;;;1.63;;
33836;SDS011;20140;49.356;8.812;2022-09-09T03:47:19;1.67;;;1.37;;
33836;SDS011;20140;49.356;8.812;2022-09-09T03:49:46;2.88;;;1.67;;
33836;SDS011;20140;49.356;8.812;2022-09-09T03:52:13;2.57;;;1.13;;
33836;SDS011;20140;49.356;8.812;2022-09-09T03:54:39;4.65;;;2.03;;
33836;SDS011;20140;49.356;8.812;2022-09-09T03:57:06;3.53;;;1.75;;
33836;SDS011;20140;49.356;8.812;2022-09-09T03:59:31;3.17;;;1.20;;
33836;SDS011;20140;49.356;8.812;2022-09-09T04:01:57;2.57;;;1.30;;
33836;SDS011;20140;49.356;8.812;2022-09-09T04:04:23;6.18;;;1.58;;
33836;SDS011;20140;49.356;8.812;2022-09-09T04:06:50;4.60;;;1.60;;
33836;SDS011;20140;49.356;8.812;2022-09-09T04:09:16;2.60;;;1.20;;
33836;SDS011;20140;49.356;8.812;2022-09-09T04:11:42;2.60;;;1.30;;
33836;SDS011;20140;49.356;8.812;2022-09-09T04:14:07;2.57;;;1.60;;
33836;SDS011;20140;49.356;8.812;2022-09-09T04:16:33;2.75;;;1.02;;
33836;SDS011;20140;49.356;8.812;2022-09-09T04:19:01;4.68;;;1.45;;
33836;SDS011;20140;49.356;8.812;2022-09-09T04:21:29;2.67;;;1.23;;
33836;SDS011;20140;49.356;8.812;2022-09-09T04:23:55;5.55;;;2.10;;
33836;SDS011;20140;49.356;8.812;2022-09-09T04:26:21;2.95;;;1.77;;
33836;SDS011;20140;49.356;8.812;2022-09-09T04:28:46;3.55;;;1.70;;
33836;SDS011;20140;49.356;8.812;2022-09-09T04:31:16;3.72;;;1.70;;
33836;SDS011;20140;49.356;8.812;2022-09-09T04:33:45;3.45;;;1.75;;
33836;SDS011;20140;49.356;8.812;2022-09-09T04:36:11;2.58;;;1.77;;
33836;SDS011;20140;49.356;8.812;2022-09-09T04:38:37;6.47;;;1.73;;
33836;SDS011;20140;49.356;8.812;2022-09-09T04:41:03;3.00;;;1.50;;
33836;SDS011;20140;49.356;8.812;2022-09-09T04:43:29;2.10;;;1.10;;
33836;SDS011;20140;49.356;8.812;2022-09-09T04:45:55;1.67;;;1.35;;
33836;SDS011;20140;49.356;8.812;2022-09-09T04:48:21;3.65;;;1.65;;
33836;SDS011;20140;49.356;8.812;2022-09-09T04:51:20;3.37;;;1.47;;
33836;SDS011;20140;49.356;8.812;2022-09-09T04:53:39;4.78;;;1.17;;
33836;SDS011;20140;49.356;8.812;2022-09-09T04:56:09;3.65;;;1.20;;
33836;SDS011;20140;49.356;8.812;2022-09-09T04:58:37;5.70;;;1.30;;
33836;SDS011;20140;49.356;8.812;2022-09-09T05:01:07;3.85;;;1.48;;
33836;SDS011;20140;49.356;8.812;2022-09-09T05:03:37;3.83;;;1.50;;
33836;SDS011;20140;49.356;8.812;2022-09-09T05:06:09;3.40;;;1.40;;
33836;SDS011;20140;49.356;8.812;2022-09-09T05:08:38;2.50;;;1.48;;
33836;SDS011;20140;49.356;8.812;2022-09-09T05:11:14;4.60;;;2.20;;
33836;SDS011;20140;49.356;8.812;2022-09-09T05:13:41;4.83;;;1.73;;
33836;SDS011;20140;49.356;8.812;2022-09-09T05:16:06;2.03;;;1.40;;
33836;SDS011;20140;49.356;8.812;2022-09-09T05:18:32;3.13;;;1.40;;
33836;SDS011;20140;49.356;8.812;2022-09-09T05:21:00;2.33;;;1.42;;
33836;SDS011;20140;49.356;8.812;2022-09-09T05:23:26;7.20;;;1.95;;
33836;SDS011;20140;49.356;8.812;2022-09-09T05:25:56;3.13;;;1.60;;
33836;SDS011;20140;49.356;8.812;2022-09-09T05:28:22;2.00;;;1.30;;
33836;SDS011;20140;49.356;8.812;2022-09-09T05:30:55;2.83;;;1.43;;
33836;SDS011;20140;49.356;8.812;2022-09-09T05:33:33;3.17;;;1.20;;
33836;SDS011;20140;49.356;8.812;2022-09-09T05:36:00;3.80;;;1.20;;
33836;SDS011;20140;49.356;8.812;2022-09-09T05:38:27;2.92;;;1.30;;
33836;SDS011;20140;49.356;8.812;2022-09-09T05:40:54;3.10;;;1.50;;
33836;SDS011;20140;49.356;8.812;2022-09-09T05:43:21;2.53;;;1.30;;
33836;SDS011;20140;49.356;8.812;2022-09-09T05:45:48;5.38;;;1.50;;
33836;SDS011;20140;49.356;8.812;2022-09-09T05:48:27;2.80;;;1.55;;
33836;SDS011;20140;49.356;8.812;2022-09-09T05:50:53;3.80;;;1.33;;
33836;SDS011;20140;49.356;8.812;2022-09-09T05:53:19;4.22;;;1.35;;
33836;SDS011;20140;49.356;8.812;2022-09-09T05:55:45;3.53;;;1.27;;
33836;SDS011;20140;49.356;8.812;2022-09-09T05:58:10;3.23;;;1.83;;
33836;SDS011;20140;49.356;8.812;2022-09-09T06:00:36;3.23;;;0.90;;
33836;SDS011;20140;49.356;8.812;2022-09-09T06:03:03;3.67;;;1.20;;
33836;SDS011;20140;49.356;8.812;2022-09-09T06:05:29;3.15;;;1.45;;
33836;SDS011;20140;49.356;8.812;2022-09-09T06:07:55;3.00;;;1.27;;
33836;SDS011;20140;49.356;8.812;2022-09-09T06:10:21;2.30;;;1.20;;
33836;SDS011;20140;49.356;8.812;2022-09-09T06:12:46;3.47;;;1.50;;
33836;SDS011;20140;49.356;8.812;2022-09-09T06:15:12;3.70;;;1.10;;
33836;SDS011;20140;49.356;8.812;2022-09-09T06:17:37;4.32;;;1.17;;
33836;SDS011;20140;49.356;8.812;2022-09-09T06:20:04;1.75;;;1.00;;
33836;SDS011;20140;49.356;8.812;2022-09-09T06:22:30;2.80;;;1.10;;
33836;SDS011;20140;49.356;8.812;2022-09-09T06:24:56;3.40;;;0.98;;
33836;SDS011;20140;49.356;8.812;2022-09-09T06:27:21;1.83;;;1.03;;
33836;SDS011;20140;49.356;8.812;2022-09-09T06:29:47;1.23;;;1.03;;
33836;SDS011;20140;49.356;8.812;2022-09-09T06:32:13;2.33;;;1.45;;
33836;SDS011;20140;49.356;8.812;2022-09-09T06:34:38;4.00;;;1.45;;
33836;SDS011;20140;49.356;8.812;2022-09-09T06:37:04;3.60;;;1.02;;
33836;SDS011;20140;49.356;8.812;2022-09-09T06:39:31;3.25;;;1.15;;
33836;SDS011;20140;49.356;8.812;2022-09-09T06:41:56;1.57;;;0.90;;
33836;SDS011;20140;49.356;8.812;2022-09-09T06:44:23;1.80;;;0.93;;
33836;SDS011;20140;49.356;8.812;2022-09-09T06:46:51;2.70;;;0.80;;
33836;SDS011;20140;49.356;8.812;2022-09-09T06:49:17;1.70;;;0.93;;
33836;SDS011;20140;49.356;8.812;2022-09-09T06:51:43;3.30;;;1.43;;
33836;SDS011;20140;49.356;8.812;2022-09-09T06:54:09;2.53;;;0.80;;
33836;SDS011;20140;49.356;8.812;2022-09-09T06:56:37;1.63;;;0.90;;
33836;SDS011;20140;49.356;8.812;2022-09-09T06:59:05;2.85;;;0.80;;
33836;SDS011;20140;49.356;8.812;2022-09-09T07:01:34;3.65;;;1.20;;
33836;SDS011;20140;49.356;8.812;2022-09-09T07:04:02;2.35;;;1.50;;
33836;SDS011;20140;49.356;8.812;2022-09-09T07:06:32;4.25;;;1.50;;
33836;SDS011;20140;49.356;8.812;2022-09-09T07:09:03;4.38;;;1.17;;
33836;SDS011;20140;49.356;8.812;2022-09-09T07:11:32;2.47;;;0.93;;
33836;SDS011;20140;49.356;8.812;2022-09-09T07:13:59;4.80;;;1.00;;
33836;SDS011;20140;49.356;8.812;2022-09-09T07:16:25;4.20;;;1.50;;
33836;SDS011;20140;49.356;8.812;2022-09-09T07:18:52;3.80;;;1.35;;
33836;SDS011;20140;49.356;8.812;2022-09-09T07:21:22;2.75;;;0.90;;
33836;SDS011;20140;49.356;8.812;2022-09-09T07:23:47;3.17;;;1.00;;
33836;SDS011;20140;49.356;8.812;2022-09-09T07:26:15;4.15;;;0.88;;
33836;SDS011;20140;49.356;8.812;2022-09-09T07:28:42;4.83;;;1.50;;
33836;SDS011;20140;49.356;8.812;2022-09-09T07:31:18;4.60;;;1.10;;
33836;SDS011;20140;49.356;8.812;2022-09-09T07:33:45;5.10;;;1.80;;
33836;SDS011;20140;49.356;8.812;2022-09-09T07:36:25;3.30;;;0.82;;
33836;SDS011;20140;49.356;8.812;2022-09-09T07:38:55;3.17;;;0.97;;
33836;SDS011;20140;49.356;8.812;2022-09-09T07:41:55;2.10;;;0.90;;
33836;SDS011;20140;49.356;8.812;2022-09-09T07:44:17;3.53;;;1.50;;
33836;SDS011;20140;49.356;8.812;2022-09-09T07:46:46;3.70;;;1.20;;
33836;SDS011;20140;49.356;8.812;2022-09-09T07:49:12;5.78;;;1.10;;
33836;SDS011;20140;49.356;8.812;2022-09-09T07:51:39;3.97;;;1.10;;
33836;SDS011;20140;49.356;8.812;2022-09-09T07:54:08;3.55;;;1.08;;
33836;SDS011;20140;49.356;8.812;2022-09-09T07:56:38;3.08;;;1.30;;
33836;SDS011;20140;49.356;8.812;2022-09-09T07:59:04;2.75;;;1.27;;
33836;SDS011;20140;49.356;8.812;2022-09-09T08:01:32;4.28;;;1.40;;
33836;SDS011;20140;49.356;8.812;2022-09-09T08:04:05;4.75;;;1.00;;
33836;SDS011;20140;49.356;8.812;2022-09-09T08:06:36;5.10;;;0.93;;
33836;SDS011;20140;49.356;8.812;2022-09-09T08:09:04;6.27;;;2.20;;
33836;SDS011;20140;49.356;8.812;2022-09-09T08:11:30;5.88;;;1.35;;
33836;SDS011;20140;49.356;8.812;2022-09-09T08:13:58;6.33;;;1.43;;
33836;SDS011;20140;49.356;8.812;2022-09-09T08:16:28;2.53;;;0.90;;
33836;SDS011;20140;49.356;8.812;2022-09-09T08:18:56;3.67;;;1.30;;
33836;SDS011;20140;49.356;8.812;2022-09-09T08:21:24;3.60;;;0.93;;
33836;SDS011;20140;49.356;8.812;2022-09-09T08:23:55;3.03;;;1.10;;
33836;SDS011;20140;49.356;8.812;2022-09-09T08:26:22;2.75;;;1.17;;
33836;SDS011;20140;49.356;8.812;2022-09-09T08:29:03;2.33;;;0.90;;
33836;SDS011;20140;49.356;8.812;2022-09-09T08:31:31;4.22;;;1.80;;
33836;SDS011;20140;49.356;8.812;2022-09-09T08:34:02;6.17;;;1.63;;
33836;SDS011;20140;49.356;8.812;2022-09-09T08:36:29;4.35;;;1.42;;
33836;SDS011;20140;49.356;8.812;2022-09-09T08:38:58;2.38;;;0.80;;
33836;SDS011;20140;49.356;8.812;2022-09-09T08:44:21;3.25;;;1.17;;
33836;SDS011;20140;49.356;8.812;2022-09-09T08:49:43;2.60;;;0.73;;
33836;SDS011;20140;49.356;8.812;2022-09-09T08:58:14;8.80;;;1.65;;
33836;SDS011;20140;49.356;8.812;2022-09-09T09:03:22;3.63;;;1.05;;
33836;SDS011;20140;49.356;8.812;2022-09-09T09:11:00;2.67;;;1.30;;
33836;SDS011;20140;49.356;8.812;2022-09-09T09:13:39;4.13;;;1.33;;
33836;SDS011;20140;49.356;8.812;2022-09-09T09:16:23;4.90;;;0.88;;
33836;SDS011;20140;49.356;8.812;2022-09-09T09:18:57;3.30;;;1.15;;
33836;SDS011;20140;49.356;8.812;2022-09-09T09:21:42;2.63;;;1.25;;
33836;SDS011;20140;49.356;8.812;2022-09-09T09:26:50;3.30;;;1.10;;
33836;SDS011;20140;49.356;8.812;2022-09-09T09:29:17;3.45;;;1.17;;
33836;SDS011;20140;49.356;8.812;2022-09-09T09:31:52;6.68;;;1.73;;
33836;SDS011;20140;49.356;8.812;2022-09-09T09:34:20;1.77;;;0.90;;
33836;SDS011;20140;49.356;8.812;2022-09-09T09:36:52;3.90;;;0.90;;
33836;SDS011;20140;49.356;8.812;2022-09-09T09:39:24;3.13;;;1.20;;
33836;SDS011;20140;49.356;8.812;2022-09-09T09:41:49;4.82;;;1.00;;
33836;SDS011;20140;49.356;8.812;2022-09-09T09:44:29;2.03;;;1.23;;
33836;SDS011;20140;49.356;8.812;2022-09-09T09:47:10;6.05;;;1.70;;
33836;SDS011;20140;49.356;8.812;2022-09-09T09:49:51;4.83;;;1.43;;
33836;SDS011;20140;49.356;8.812;2022-09-09T09:52:21;2.45;;;0.90;;
33836;SDS011;20140;49.356;8.812;2022-09-09T09:54:49;4.38;;;1.02;;
33836;SDS011;20140;49.356;8.812;2022-09-09T09:57:16;4.07;;;0.95;;
33836;SDS011;20140;49.356;8.812;2022-09-09T09:59:43;5.80;;;1.38;;
33836;SDS011;20140;49.356;8.812;2022-09-09T10:02:19;3.30;;;1.27;;
33836;SDS011;20140;49.356;8.812;2022-09-09T10:05:00;5.63;;;1.48;;
33836;SDS011;20140;49.356;8.812;2022-09-09T10:08:02;5.40;;;1.30;;
33836;SDS011;20140;49.356;8.812;2022-09-09T10:10:45;4.13;;;1.43;;
33836;SDS011;20140;49.356;8.812;2022-09-09T10:13:20;4.95;;;1.05;;
33836;SDS011;20140;49.356;8.812;2022-09-09T10:16:00;5.32;;;1.02;;
33836;SDS011;20140;49.356;8.812;2022-09-09T10:18:58;6.50;;;1.42;;
33836;SDS011;20140;49.356;8.812;2022-09-09T10:24:21;3.97;;;1.63;;
33836;SDS011;20140;49.356;8.812;2022-09-09T10:27:06;3.40;;;1.38;;
33836;SDS011;20140;49.356;8.812;2022-09-09T10:35:37;1.65;;;1.20;;
33836;SDS011;20140;49.356;8.812;2022-09-09T10:38:16;2.90;;;1.13;;
33836;SDS011;20140;49.356;8.812;2022-09-09T10:41:05;4.25;;;1.50;;
33836;SDS011;20140;49.356;8.812;2022-09-09T10:43:48;2.60;;;0.85;;
33836;SDS011;20140;49.356;8.812;2022-09-09T10:46:23;3.55;;;0.80;;
33836;SDS011;20140;49.356;8.812;2022-09-09T10:49:03;5.20;;;1.02;;
33836;SDS011;20140;49.356;8.812;2022-09-09T10:52:03;5.63;;;1.02;;
33836;SDS011;20140;49.356;8.812;2022-09-09T10:57:39;2.03;;;0.63;;
33836;SDS011;20140;49.356;8.812;2022-09-09T11:02:42;2.75;;;0.60;;
33836;SDS011;20140;49.356;8.812;2022-09-09T11:05:18;2.35;;;0.85;;
33836;SDS011;20140;49.356;8.812;2022-09-09T11:12:53;2.30;;;0.98;;
33836;SDS011;20140;49.356;8.812;2022-09-09T11:15:28;6.45;;;1.45;;
33836;SDS011;20140;49.356;8.812;2022-09-09T11:18:06;2.55;;;0.95;;
33836;SDS011;20140;49.356;8.812;2022-09-09T11:20:44;2.80;;;0.70;;
33836;SDS011;20140;49.356;8.812;2022-09-09T11:23:15;2.17;;;0.90;;
33836;SDS011;20140;49.356;8.812;2022-09-09T11:25:48;6.30;;;1.08;;
33836;SDS011;20140;49.356;8.812;2022-09-09T11:28:51;5.27;;;1.07;;
33836;SDS011;20140;49.356;8.812;2022-09-09T11:31:30;4.32;;;1.33;;
33836;SDS011;20140;49.356;8.812;2022-09-09T11:34:01;4.40;;;1.00;;
33836;SDS011;20140;49.356;8.812;2022-09-09T11:44:44;4.03;;;1.10;;
33836;SDS011;20140;49.356;8.812;2022-09-09T11:47:27;4.45;;;1.38;;
33836;SDS011;20140;49.356;8.812;2022-09-09T11:50:26;3.83;;;0.77;;
33836;SDS011;20140;49.356;8.812;2022-09-09T11:55:47;1.73;;;0.90;;
33836;SDS011;20140;49.356;8.812;2022-09-09T12:00:44;3.05;;;1.10;;
33836;SDS011;20140;49.356;8.812;2022-09-09T12:09:09;3.47;;;0.90;;
33836;SDS011;20140;49.356;8.812;2022-09-09T12:11:44;1.15;;;0.55;;
33836;SDS011;20140;49.356;8.812;2022-09-09T12:14:19;3.80;;;1.17;;
33836;SDS011;20140;49.356;8.812;2022-09-09T12:16:47;2.72;;;0.90;;
33836;SDS011;20140;49.356;8.812;2022-09-09T12:19:15;1.87;;;0.90;;
33836;SDS011;20140;49.356;8.812;2022-09-09T12:22:01;3.13;;;0.70;;
33836;SDS011;20140;49.356;8.812;2022-09-09T12:27:16;3.97;;;0.98;;
33836;SDS011;20140;49.356;8.812;2022-09-09T12:30:01;1.45;;;0.60;;
33836;SDS011;20140;49.356;8.812;2022-09-09T12:32:32;5.30;;;1.10;;
33836;SDS011;20140;49.356;8.812;2022-09-09T12:37:52;3.17;;;1.02;;
33836;SDS011;20140;49.356;8.812;2022-09-09T12:40:24;4.33;;;1.23;;
33836;SDS011;20140;49.356;8.812;2022-09-09T12:42:55;4.00;;;0.83;;
33836;SDS011;20140;49.356;8.812;2022-09-09T12:45:21;1.77;;;1.02;;
33836;SDS011;20140;49.356;8.812;2022-09-09T12:50:22;2.33;;;1.20;;
33836;SDS011;20140;49.356;8.812;2022-09-09T12:53:02;1.73;;;0.57;;
33836;SDS011;20140;49.356;8.812;2022-09-09T12:55:34;3.30;;;0.70;;
33836;SDS011;20140;49.356;8.812;2022-09-09T12:58:01;1.05;;;0.57;;
33836;SDS011;20140;49.356;8.812;2022-09-09T13:00:32;2.65;;;0.85;;
33836;SDS011;20140;49.356;8.812;2022-09-09T13:03:00;3.67;;;1.00;;
33836;SDS011;20140;49.356;8.812;2022-09-09T13:05:48;2.20;;;0.70;;
33836;SDS011;20140;49.356;8.812;2022-09-09T13:08:14;2.70;;;0.70;;
33836;SDS011;20140;49.356;8.812;2022-09-09T13:10:46;3.60;;;0.93;;
33836;SDS011;20140;49.356;8.812;2022-09-09T13:13:21;2.75;;;1.33;;
33836;SDS011;20140;49.356;8.812;2022-09-09T13:16:20;3.10;;;0.67;;
33836;SDS011;20140;49.356;8.812;2022-09-09T13:18:50;5.22;;;1.40;;
33836;SDS011;20140;49.356;8.812;2022-09-09T13:21:17;5.80;;;1.70;;
33836;SDS011;20140;49.356;8.812;2022-09-09T13:23:47;2.70;;;0.43;;
33836;SDS011;20140;49.356;8.812;2022-09-09T13:26:25;2.00;;;0.85;;
33836;SDS011;20140;49.356;8.812;2022-09-09T13:28:52;0.70;;;0.40;;
33836;SDS011;20140;49.356;8.812;2022-09-09T13:33:55;3.40;;;0.40;;
33836;SDS011;20140;49.356;8.812;2022-09-09T13:36:31;3.20;;;0.83;;
33836;SDS011;20140;49.356;8.812;2022-09-09T13:39:00;1.90;;;0.82;;
33836;SDS011;20140;49.356;8.812;2022-09-09T13:41:35;1.88;;;0.63;;
33836;SDS011;20140;49.356;8.812;2022-09-09T13:44:14;2.10;;;0.73;;
33836;SDS011;20140;49.356;8.812;2022-09-09T13:46:45;2.03;;;0.52;;
33836;SDS011;20140;49.356;8.812;2022-09-09T13:51:40;5.77;;;0.40;;
33836;SDS011;20140;49.356;8.812;2022-09-09T13:54:11;3.25;;;0.40;;
33836;SDS011;20140;49.356;8.812;2022-09-09T13:56:38;2.83;;;0.80;;
33836;SDS011;20140;49.356;8.812;2022-09-09T13:59:06;2.08;;;0.43;;
33836;SDS011;20140;49.356;8.812;2022-09-09T14:01:44;0.90;;;0.30;;
33836;SDS011;20140;49.356;8.812;2022-09-09T14:04:10;2.30;;;0.40;;
33836;SDS011;20140;49.356;8.812;2022-09-09T14:06:35;2.05;;;0.50;;
33836;SDS011;20140;49.356;8.812;2022-09-09T14:09:03;2.13;;;0.50;;
33836;SDS011;20140;49.356;8.812;2022-09-09T14:11:30;3.53;;;1.60;;
33836;SDS011;20140;49.356;8.812;2022-09-09T14:13:55;3.08;;;0.55;;
33836;SDS011;20140;49.356;8.812;2022-09-09T14:16:21;2.23;;;0.53;;
33836;SDS011;20140;49.356;8.812;2022-09-09T14:18:46;0.87;;;0.50;;
33836;SDS011;20140;49.356;8.812;2022-09-09T14:21:13;1.35;;;0.50;;
33836;SDS011;20140;49.356;8.812;2022-09-09T14:23:39;1.50;;;0.40;;
33836;SDS011;20140;49.356;8.812;2022-09-09T14:26:05;2.80;;;0.68;;
33836;SDS011;20140;49.356;8.812;2022-09-09T14:28:33;2.15;;;0.65;;
33836;SDS011;20140;49.356;8.812;2022-09-09T14:31:00;2.40;;;0.40;;
33836;SDS011;20140;49.356;8.812;2022-09-09T14:33:28;1.02;;;0.38;;
33836;SDS011;20140;49.356;8.812;2022-09-09T14:36:01;1.90;;;0.50;;
33836;SDS011;20140;49.356;8.812;2022-09-09T14:38:32;1.73;;;0.50;;
33836;SDS011;20140;49.356;8.812;2022-09-09T14:41:04;1.58;;;0.68;;
33836;SDS011;20140;49.356;8.812;2022-09-09T14:43:39;1.30;;;0.40;;
33836;SDS011;20140;49.356;8.812;2022-09-09T14:46:09;2.42;;;0.50;;
33836;SDS011;20140;49.356;8.812;2022-09-09T14:48:37;1.73;;;0.57;;
33836;SDS011;20140;49.356;8.812;2022-09-09T14:51:09;1.52;;;0.40;;
33836;SDS011;20140;49.356;8.812;2022-09-09T14:53:37;2.83;;;0.50;;
33836;SDS011;20140;49.356;8.812;2022-09-09T14:56:07;2.10;;;0.50;;
33836;SDS011;20140;49.356;8.812;2022-09-09T14:58:36;1.33;;;0.30;;
33836;SDS011;20140;49.356;8.812;2022-09-09T15:01:03;2.20;;;0.57;;
33836;SDS011;20140;49.356;8.812;2022-09-09T15:03:37;0.85;;;0.50;;
33836;SDS011;20140;49.356;8.812;2022-09-09T15:06:10;1.80;;;0.50;;
33836;SDS011;20140;49.356;8.812;2022-09-09T15:08:37;1.45;;;0.40;;
33836;SDS011;20140;49.356;8.812;2022-09-09T15:11:06;1.17;;;0.57;;
33836;SDS011;20140;49.356;8.812;2022-09-09T15:13:32;3.25;;;0.70;;
33836;SDS011;20140;49.356;8.812;2022-09-09T15:18:32;2.30;;;1.02;;
33836;SDS011;20140;49.356;8.812;2022-09-09T15:20:58;2.70;;;0.77;;
33836;SDS011;20140;49.356;8.812;2022-09-09T15:23:31;4.20;;;0.98;;
33836;SDS011;20140;49.356;8.812;2022-09-09T15:25:59;3.08;;;0.60;;
33836;SDS011;20140;49.356;8.812;2022-09-09T15:28:25;2.45;;;0.80;;
33836;SDS011;20140;49.356;8.812;2022-09-09T15:30:51;2.03;;;0.87;;
33836;SDS011;20140;49.356;8.812;2022-09-09T15:33:18;4.73;;;1.10;;
33836;SDS011;20140;49.356;8.812;2022-09-09T15:35:44;1.20;;;0.70;;
33836;SDS011;20140;49.356;8.812;2022-09-09T15:38:10;2.05;;;0.90;;
33836;SDS011;20140;49.356;8.812;2022-09-09T15:40:37;1.13;;;0.80;;
33836;SDS011;20140;49.356;8.812;2022-09-09T15:43:04;2.07;;;0.60;;
33836;SDS011;20140;49.356;8.812;2022-09-09T15:45:31;2.60;;;0.80;;
33836;SDS011;20140;49.356;8.812;2022-09-09T15:47:58;2.08;;;0.80;;
33836;SDS011;20140;49.356;8.812;2022-09-09T15:50:25;2.15;;;0.55;;
33836;SDS011;20140;49.356;8.812;2022-09-09T15:52:51;1.70;;;0.80;;
33836;SDS011;20140;49.356;8.812;2022-09-09T15:55:17;1.85;;;0.75;;
33836;SDS011;20140;49.356;8.812;2022-09-09T15:57:45;2.65;;;0.68;;
33836;SDS011;20140;49.356;8.812;2022-09-09T16:00:11;2.60;;;0.73;;
33836;SDS011;20140;49.356;8.812;2022-09-09T16:02:38;2.00;;;0.50;;
33836;SDS011;20140;49.356;8.812;2022-09-09T16:05:04;3.33;;;0.77;;
33836;SDS011;20140;49.356;8.812;2022-09-09T16:07:30;2.75;;;0.57;;
33836;SDS011;20140;49.356;8.812;2022-09-09T16:09:56;2.03;;;0.60;;
33836;SDS011;20140;49.356;8.812;2022-09-09T16:12:21;0.87;;;0.43;;
33836;SDS011;20140;49.356;8.812;2022-09-09T16:14:47;0.47;;;0.30;;
33836;SDS011;20140;49.356;8.812;2022-09-09T16:17:12;0.90;;;0.37;;
33836;SDS011;20140;49.356;8.812;2022-09-09T16:19:39;0.95;;;0.35;;
33836;SDS011;20140;49.356;8.812;2022-09-09T16:22:05;1.10;;;0.65;;
33836;SDS011;20140;49.356;8.812;2022-09-09T16:24:31;2.30;;;0.60;;
33836;SDS011;20140;49.356;8.812;2022-09-09T16:26:57;1.50;;;0.60;;
33836;SDS011;20140;49.356;8.812;2022-09-09T16:29:23;1.05;;;0.50;;
33836;SDS011;20140;49.356;8.812;2022-09-09T16:31:52;2.10;;;0.50;;
33836;SDS011;20140;49.356;8.812;2022-09-09T16:34:19;1.40;;;0.70;;
33836;SDS011;20140;49.356;8.812;2022-09-09T16:36:46;4.38;;;0.80;;
33836;SDS011;20140;49.356;8.812;2022-09-09T16:39:19;3.17;;;0.70;;
33836;SDS011;20140;49.356;8.812;2022-09-09T16:41:46;1.00;;;0.30;;
33836;SDS011;20140;49.356;8.812;2022-09-09T16:44:13;2.60;;;0.60;;
33836;SDS011;20140;49.356;8.812;2022-09-09T16:46:44;2.38;;;0.63;;
33836;SDS011;20140;49.356;8.812;2022-09-09T16:49:11;1.25;;;0.60;;
33836;SDS011;20140;49.356;8.812;2022-09-09T16:51:40;2.28;;;0.80;;
33836;SDS011;20140;49.356;8.812;2022-09-09T16:54:13;3.15;;;0.75;;
33836;SDS011;20140;49.356;8.812;2022-09-09T16:56:41;1.95;;;0.60;;
33836;SDS011;20140;49.356;8.812;2022-09-09T16:59:09;2.90;;;0.65;;
33836;SDS011;20140;49.356;8.812;2022-09-09T17:01:38;1.25;;;0.80;;
33836;SDS011;20140;49.356;8.812;2022-09-09T17:04:06;1.60;;;0.43;;
33836;SDS011;20140;49.356;8.812;2022-09-09T17:06:33;2.00;;;0.70;;
33836;SDS011;20140;49.356;8.812;2022-09-09T17:09:02;2.20;;;0.63;;
33836;SDS011;20140;49.356;8.812;2022-09-09T17:11:29;3.22;;;1.05;;
33836;SDS011;20140;49.356;8.812;2022-09-09T17:13:55;0.65;;;0.52;;
33836;SDS011;20140;49.356;8.812;2022-09-09T17:16:23;2.25;;;0.82;;
33836;SDS011;20140;49.356;8.812;2022-09-09T17:18:53;1.75;;;0.88;;